sensor_id;sensor_type;location;lat;lon;timestamp;P1;durP1;ratioP1;P2;durP2;ratioP2
23230;SDS011;11784;49.818;8.632;2023-01-01T00:00:11;9.82;;;4.50;;
23230;SDS011;11784;49.818;8.632;2023-01-01T00:02:38;9.20;;;4.55;;
23230;SDS011;11784;49.818;8.632;2023-01-01T00:05:04;9.02;;;4.50;;
23230;SDS011;11784;49.818;8.632;2023-01-01T00:07:32;8.48;;;3.75;;
23230;SDS011;11784;49.818;8.632;2023-01-01T00:09:57;7.72;;;4.18;;
23230;SDS011;11784;49.818;8.632;2023-01-01T00:12:41;6.75;;;3.60;;
23230;SDS011;11784;49.818;8.632;2023-01-01T00:15:07;8.10;;;4.28;;
23230;SDS011;11784;49.818;8.632;2023-01-01T00:17:32;9.00;;;4.43;;
23230;SDS011;11784;49.818;8.632;2023-01-01T00:19:58;8.63;;;5.28;;
23230;SDS011;11784;49.818;8.632;2023-01-01T00:22:23;17.65;;;6.07;;
23230;SDS011;11784;49.818;8.632;2023-01-01T00:24:50;12.77;;;6.95;;
23230;SDS011;11784;49.818;8.632;2023-01-01T00:27:15;11.43;;;7.07;;
23230;SDS011;11784;49.818;8.632;2023-01-01T00:29:41;12.52;;;7.22;;
23230;SDS011;11784;49.818;8.632;2023-01-01T00:32:07;16.33;;;9.32;;
23230;SDS011;11784;49.818;8.632;2023-01-01T00:34:32;21.08;;;9.15;;
23230;SDS011;11784;49.818;8.632;2023-01-01T00:36:58;20.50;;;9.40;;
23230;SDS011;11784;49.818;8.632;2023-01-01T00:39:23;14.38;;;7.70;;
23230;SDS011;11784;49.818;8.632;2023-01-01T00:41:49;13.88;;;7.32;;
23230;SDS011;11784;49.818;8.632;2023-01-01T00:44:17;17.08;;;8.70;;
23230;SDS011;11784;49.818;8.632;2023-01-01T00:46:43;11.85;;;7.65;;
23230;SDS011;11784;49.818;8.632;2023-01-01T00:49:09;16.30;;;8.70;;
23230;SDS011;11784;49.818;8.632;2023-01-01T00:51:34;12.57;;;6.95;;
23230;SDS011;11784;49.818;8.632;2023-01-01T00:54:00;14.77;;;7.28;;
23230;SDS011;11784;49.818;8.632;2023-01-01T00:56:25;12.77;;;6.68;;
23230;SDS011;11784;49.818;8.632;2023-01-01T00:58:52;19.08;;;9.25;;
23230;SDS011;11784;49.818;8.632;2023-01-01T01:01:17;18.50;;;9.10;;
23230;SDS011;11784;49.818;8.632;2023-01-01T01:03:43;17.13;;;7.72;;
23230;SDS011;11784;49.818;8.632;2023-01-01T01:06:09;19.17;;;9.25;;
23230;SDS011;11784;49.818;8.632;2023-01-01T01:08:37;19.77;;;9.50;;
23230;SDS011;11784;49.818;8.632;2023-01-01T01:11:09;15.40;;;9.40;;
23230;SDS011;11784;49.818;8.632;2023-01-01T01:13:35;17.57;;;8.77;;
23230;SDS011;11784;49.818;8.632;2023-01-01T01:16:06;21.63;;;8.70;;
23230;SDS011;11784;49.818;8.632;2023-01-01T01:18:33;13.82;;;8.55;;
23230;SDS011;11784;49.818;8.632;2023-01-01T01:20:58;12.43;;;7.85;;
23230;SDS011;11784;49.818;8.632;2023-01-01T01:23:24;12.98;;;7.47;;
23230;SDS011;11784;49.818;8.632;2023-01-01T01:25:50;15.35;;;7.47;;
23230;SDS011;11784;49.818;8.632;2023-01-01T01:28:15;15.18;;;7.43;;
23230;SDS011;11784;49.818;8.632;2023-01-01T01:30:41;13.45;;;7.22;;
23230;SDS011;11784;49.818;8.632;2023-01-01T01:33:06;13.82;;;7.25;;
23230;SDS011;11784;49.818;8.632;2023-01-01T01:35:32;12.77;;;7.70;;
23230;SDS011;11784;49.818;8.632;2023-01-01T01:37:57;11.15;;;6.13;;
23230;SDS011;11784;49.818;8.632;2023-01-01T01:40:23;7.97;;;5.20;;
23230;SDS011;11784;49.818;8.632;2023-01-01T01:42:49;10.15;;;5.07;;
23230;SDS011;11784;49.818;8.632;2023-01-01T01:45:16;7.90;;;4.47;;
23230;SDS011;11784;49.818;8.632;2023-01-01T01:50:27;5.70;;;2.83;;
23230;SDS011;11784;49.818;8.632;2023-01-01T01:53:08;4.75;;;2.78;;
23230;SDS011;11784;49.818;8.632;2023-01-01T01:55:49;3.03;;;2.10;;
23230;SDS011;11784;49.818;8.632;2023-01-01T01:58:17;4.13;;;2.53;;
23230;SDS011;11784;49.818;8.632;2023-01-01T02:00:43;4.65;;;2.67;;
23230;SDS011;11784;49.818;8.632;2023-01-01T02:03:22;7.30;;;1.80;;
23230;SDS011;11784;49.818;8.632;2023-01-01T02:05:53;3.42;;;1.50;;
23230;SDS011;11784;49.818;8.632;2023-01-01T02:08:19;5.57;;;2.53;;
23230;SDS011;11784;49.818;8.632;2023-01-01T02:10:45;5.05;;;2.20;;
23230;SDS011;11784;49.818;8.632;2023-01-01T02:13:11;2.40;;;1.77;;
23230;SDS011;11784;49.818;8.632;2023-01-01T02:18:28;2.83;;;1.52;;
23230;SDS011;11784;49.818;8.632;2023-01-01T02:21:06;4.28;;;1.63;;
23230;SDS011;11784;49.818;8.632;2023-01-01T02:31:01;2.33;;;1.73;;
23230;SDS011;11784;49.818;8.632;2023-01-01T02:33:27;2.88;;;1.10;;
23230;SDS011;11784;49.818;8.632;2023-01-01T02:35:55;2.50;;;1.25;;
23230;SDS011;11784;49.818;8.632;2023-01-01T02:38:28;2.70;;;1.27;;
23230;SDS011;11784;49.818;8.632;2023-01-01T02:40:58;4.53;;;1.20;;
23230;SDS011;11784;49.818;8.632;2023-01-01T02:43:26;2.72;;;1.30;;
23230;SDS011;11784;49.818;8.632;2023-01-01T02:45:52;3.13;;;1.38;;
23230;SDS011;11784;49.818;8.632;2023-01-01T02:53:57;2.25;;;1.15;;
23230;SDS011;11784;49.818;8.632;2023-01-01T03:02:52;3.92;;;1.42;;
23230;SDS011;11784;49.818;8.632;2023-01-01T03:05:37;2.92;;;1.63;;
23230;SDS011;11784;49.818;8.632;2023-01-01T03:08:52;1.95;;;1.55;;
23230;SDS011;11784;49.818;8.632;2023-01-01T03:11:26;4.38;;;1.40;;
23230;SDS011;11784;49.818;8.632;2023-01-01T03:14:20;4.13;;;1.85;;
23230;SDS011;11784;49.818;8.632;2023-01-01T03:19:41;4.15;;;2.08;;
23230;SDS011;11784;49.818;8.632;2023-01-01T03:22:09;3.42;;;1.85;;
23230;SDS011;11784;49.818;8.632;2023-01-01T03:24:44;3.13;;;1.77;;
23230;SDS011;11784;49.818;8.632;2023-01-01T03:27:16;2.85;;;1.83;;
23230;SDS011;11784;49.818;8.632;2023-01-01T03:29:46;3.00;;;1.63;;
23230;SDS011;11784;49.818;8.632;2023-01-01T03:32:15;4.22;;;1.95;;
23230;SDS011;11784;49.818;8.632;2023-01-01T03:34:49;4.18;;;1.95;;
23230;SDS011;11784;49.818;8.632;2023-01-01T03:37:27;2.55;;;0.82;;
23230;SDS011;11784;49.818;8.632;2023-01-01T03:39:55;4.55;;;1.33;;
23230;SDS011;11784;49.818;8.632;2023-01-01T03:44:59;2.85;;;1.65;;
23230;SDS011;11784;49.818;8.632;2023-01-01T03:49:55;2.35;;;1.40;;
23230;SDS011;11784;49.818;8.632;2023-01-01T03:52:27;4.85;;;0.85;;
23230;SDS011;11784;49.818;8.632;2023-01-01T03:55:08;3.30;;;1.33;;
23230;SDS011;11784;49.818;8.632;2023-01-01T03:57:57;1.10;;;0.85;;
23230;SDS011;11784;49.818;8.632;2023-01-01T04:00:34;2.22;;;1.33;;
23230;SDS011;11784;49.818;8.632;2023-01-01T04:03:08;2.00;;;1.10;;
23230;SDS011;11784;49.818;8.632;2023-01-01T04:05:42;2.00;;;1.15;;
23230;SDS011;11784;49.818;8.632;2023-01-01T04:08:08;4.43;;;1.35;;
23230;SDS011;11784;49.818;8.632;2023-01-01T04:10:37;3.50;;;1.55;;
23230;SDS011;11784;49.818;8.632;2023-01-01T04:13:07;2.00;;;1.10;;
23230;SDS011;11784;49.818;8.632;2023-01-01T04:15:32;3.47;;;1.40;;
23230;SDS011;11784;49.818;8.632;2023-01-01T04:18:00;1.80;;;1.08;;
23230;SDS011;11784;49.818;8.632;2023-01-01T04:20:26;1.67;;;1.20;;
23230;SDS011;11784;49.818;8.632;2023-01-01T04:22:54;2.15;;;1.33;;
23230;SDS011;11784;49.818;8.632;2023-01-01T04:25:20;2.70;;;1.65;;
23230;SDS011;11784;49.818;8.632;2023-01-01T04:27:46;3.03;;;1.50;;
23230;SDS011;11784;49.818;8.632;2023-01-01T04:30:12;5.88;;;1.50;;
23230;SDS011;11784;49.818;8.632;2023-01-01T04:32:38;3.05;;;1.45;;
23230;SDS011;11784;49.818;8.632;2023-01-01T04:35:05;3.70;;;1.58;;
23230;SDS011;11784;49.818;8.632;2023-01-01T04:37:34;4.47;;;1.17;;
23230;SDS011;11784;49.818;8.632;2023-01-01T04:40:00;3.30;;;1.42;;
23230;SDS011;11784;49.818;8.632;2023-01-01T04:42:26;3.55;;;1.40;;
23230;SDS011;11784;49.818;8.632;2023-01-01T04:44:51;3.78;;;1.90;;
23230;SDS011;11784;49.818;8.632;2023-01-01T04:47:17;2.67;;;1.35;;
23230;SDS011;11784;49.818;8.632;2023-01-01T04:49:42;3.47;;;1.60;;
23230;SDS011;11784;49.818;8.632;2023-01-01T04:52:08;3.63;;;1.70;;
23230;SDS011;11784;49.818;8.632;2023-01-01T04:54:33;3.58;;;1.55;;
23230;SDS011;11784;49.818;8.632;2023-01-01T04:56:59;2.42;;;1.17;;
23230;SDS011;11784;49.818;8.632;2023-01-01T04:59:24;4.68;;;1.65;;
23230;SDS011;11784;49.818;8.632;2023-01-01T05:01:50;3.33;;;1.42;;
23230;SDS011;11784;49.818;8.632;2023-01-01T05:04:15;2.58;;;1.38;;
23230;SDS011;11784;49.818;8.632;2023-01-01T05:06:42;1.52;;;0.90;;
23230;SDS011;11784;49.818;8.632;2023-01-01T05:09:08;3.35;;;1.38;;
23230;SDS011;11784;49.818;8.632;2023-01-01T05:11:34;3.70;;;1.25;;
23230;SDS011;11784;49.818;8.632;2023-01-01T05:14:00;2.28;;;1.40;;
23230;SDS011;11784;49.818;8.632;2023-01-01T05:16:34;1.58;;;1.00;;
23230;SDS011;11784;49.818;8.632;2023-01-01T05:19:01;6.88;;;2.03;;
23230;SDS011;11784;49.818;8.632;2023-01-01T05:21:30;2.22;;;1.30;;
23230;SDS011;11784;49.818;8.632;2023-01-01T05:23:58;1.75;;;1.15;;
23230;SDS011;11784;49.818;8.632;2023-01-01T05:26:26;3.88;;;1.45;;
23230;SDS011;11784;49.818;8.632;2023-01-01T05:28:54;1.75;;;1.35;;
23230;SDS011;11784;49.818;8.632;2023-01-01T05:31:21;1.67;;;0.98;;
23230;SDS011;11784;49.818;8.632;2023-01-01T05:33:48;4.43;;;2.10;;
23230;SDS011;11784;49.818;8.632;2023-01-01T05:36:18;1.60;;;1.10;;
23230;SDS011;11784;49.818;8.632;2023-01-01T05:38:46;2.58;;;1.38;;
23230;SDS011;11784;49.818;8.632;2023-01-01T05:41:13;2.30;;;1.20;;
23230;SDS011;11784;49.818;8.632;2023-01-01T05:43:40;3.45;;;1.40;;
23230;SDS011;11784;49.818;8.632;2023-01-01T05:46:08;4.72;;;1.30;;
23230;SDS011;11784;49.818;8.632;2023-01-01T05:48:35;3.70;;;1.55;;
23230;SDS011;11784;49.818;8.632;2023-01-01T05:51:05;2.72;;;0.95;;
23230;SDS011;11784;49.818;8.632;2023-01-01T05:53:33;3.47;;;1.55;;
23230;SDS011;11784;49.818;8.632;2023-01-01T05:55:58;4.30;;;1.60;;
23230;SDS011;11784;49.818;8.632;2023-01-01T05:58:25;5.30;;;1.70;;
23230;SDS011;11784;49.818;8.632;2023-01-01T06:00:51;3.88;;;1.83;;
23230;SDS011;11784;49.818;8.632;2023-01-01T06:03:17;2.55;;;1.30;;
23230;SDS011;11784;49.818;8.632;2023-01-01T06:05:42;1.70;;;1.23;;
23230;SDS011;11784;49.818;8.632;2023-01-01T06:08:08;2.65;;;1.52;;
23230;SDS011;11784;49.818;8.632;2023-01-01T06:10:35;2.15;;;1.02;;
23230;SDS011;11784;49.818;8.632;2023-01-01T06:13:01;6.25;;;1.35;;
23230;SDS011;11784;49.818;8.632;2023-01-01T06:15:26;3.50;;;1.30;;
23230;SDS011;11784;49.818;8.632;2023-01-01T06:17:52;1.63;;;0.95;;
23230;SDS011;11784;49.818;8.632;2023-01-01T06:20:20;4.45;;;1.13;;
23230;SDS011;11784;49.818;8.632;2023-01-01T06:22:46;2.72;;;1.60;;
23230;SDS011;11784;49.818;8.632;2023-01-01T06:25:11;1.98;;;1.13;;
23230;SDS011;11784;49.818;8.632;2023-01-01T06:27:37;2.55;;;1.30;;
23230;SDS011;11784;49.818;8.632;2023-01-01T06:30:03;1.98;;;1.20;;
23230;SDS011;11784;49.818;8.632;2023-01-01T06:32:29;1.08;;;0.80;;
23230;SDS011;11784;49.818;8.632;2023-01-01T06:34:55;2.67;;;1.02;;
23230;SDS011;11784;49.818;8.632;2023-01-01T06:37:20;1.25;;;0.73;;
23230;SDS011;11784;49.818;8.632;2023-01-01T06:39:46;3.50;;;1.50;;
23230;SDS011;11784;49.818;8.632;2023-01-01T06:42:11;2.90;;;1.42;;
23230;SDS011;11784;49.818;8.632;2023-01-01T06:44:37;3.55;;;1.67;;
23230;SDS011;11784;49.818;8.632;2023-01-01T06:47:02;1.92;;;0.90;;
23230;SDS011;11784;49.818;8.632;2023-01-01T06:49:28;2.92;;;1.00;;
23230;SDS011;11784;49.818;8.632;2023-01-01T06:51:54;2.22;;;1.10;;
23230;SDS011;11784;49.818;8.632;2023-01-01T06:54:19;2.40;;;0.80;;
23230;SDS011;11784;49.818;8.632;2023-01-01T06:56:45;3.58;;;1.38;;
23230;SDS011;11784;49.818;8.632;2023-01-01T06:59:10;2.50;;;1.13;;
23230;SDS011;11784;49.818;8.632;2023-01-01T07:01:36;5.40;;;1.38;;
23230;SDS011;11784;49.818;8.632;2023-01-01T07:04:06;0.80;;;0.65;;
23230;SDS011;11784;49.818;8.632;2023-01-01T07:06:34;1.92;;;0.80;;
23230;SDS011;11784;49.818;8.632;2023-01-01T07:09:01;2.72;;;1.20;;
23230;SDS011;11784;49.818;8.632;2023-01-01T07:11:27;1.70;;;0.88;;
23230;SDS011;11784;49.818;8.632;2023-01-01T07:13:53;1.85;;;0.77;;
23230;SDS011;11784;49.818;8.632;2023-01-01T07:16:19;2.25;;;1.05;;
23230;SDS011;11784;49.818;8.632;2023-01-01T07:18:44;1.95;;;1.08;;
23230;SDS011;11784;49.818;8.632;2023-01-01T07:21:32;1.98;;;0.93;;
23230;SDS011;11784;49.818;8.632;2023-01-01T07:24:02;1.90;;;0.65;;
23230;SDS011;11784;49.818;8.632;2023-01-01T07:26:29;1.48;;;1.10;;
23230;SDS011;11784;49.818;8.632;2023-01-01T07:28:55;4.13;;;1.45;;
23230;SDS011;11784;49.818;8.632;2023-01-01T07:31:21;3.22;;;1.40;;
23230;SDS011;11784;49.818;8.632;2023-01-01T07:33:47;5.28;;;1.35;;
23230;SDS011;11784;49.818;8.632;2023-01-01T07:36:13;1.15;;;0.68;;
23230;SDS011;11784;49.818;8.632;2023-01-01T07:38:38;1.95;;;0.98;;
23230;SDS011;11784;49.818;8.632;2023-01-01T07:41:04;4.00;;;1.00;;
23230;SDS011;11784;49.818;8.632;2023-01-01T07:43:30;2.90;;;1.25;;
23230;SDS011;11784;49.818;8.632;2023-01-01T07:45:56;1.88;;;0.77;;
23230;SDS011;11784;49.818;8.632;2023-01-01T07:48:22;2.17;;;1.10;;
23230;SDS011;11784;49.818;8.632;2023-01-01T07:50:48;5.05;;;0.90;;
23230;SDS011;11784;49.818;8.632;2023-01-01T07:53:15;2.08;;;1.15;;
23230;SDS011;11784;49.818;8.632;2023-01-01T07:55:41;3.58;;;0.88;;
23230;SDS011;11784;49.818;8.632;2023-01-01T07:58:06;3.03;;;1.38;;
23230;SDS011;11784;49.818;8.632;2023-01-01T08:00:33;1.58;;;1.05;;
23230;SDS011;11784;49.818;8.632;2023-01-01T08:02:59;6.72;;;1.67;;
23230;SDS011;11784;49.818;8.632;2023-01-01T08:05:24;4.22;;;1.15;;
23230;SDS011;11784;49.818;8.632;2023-01-01T08:07:53;4.00;;;1.02;;
23230;SDS011;11784;49.818;8.632;2023-01-01T08:10:29;1.27;;;0.85;;
23230;SDS011;11784;49.818;8.632;2023-01-01T08:13:02;1.98;;;0.98;;
23230;SDS011;11784;49.818;8.632;2023-01-01T08:15:28;1.27;;;0.70;;
23230;SDS011;11784;49.818;8.632;2023-01-01T08:17:58;0.82;;;0.60;;
23230;SDS011;11784;49.818;8.632;2023-01-01T08:20:25;1.98;;;0.65;;
23230;SDS011;11784;49.818;8.632;2023-01-01T08:22:51;1.55;;;0.70;;
23230;SDS011;11784;49.818;8.632;2023-01-01T08:25:17;1.92;;;1.00;;
23230;SDS011;11784;49.818;8.632;2023-01-01T08:27:43;1.73;;;0.95;;
23230;SDS011;11784;49.818;8.632;2023-01-01T08:30:09;2.13;;;1.00;;
23230;SDS011;11784;49.818;8.632;2023-01-01T08:32:37;1.20;;;0.90;;
23230;SDS011;11784;49.818;8.632;2023-01-01T08:35:06;1.48;;;0.93;;
23230;SDS011;11784;49.818;8.632;2023-01-01T08:37:33;1.23;;;0.75;;
23230;SDS011;11784;49.818;8.632;2023-01-01T08:39:58;1.83;;;1.20;;
23230;SDS011;11784;49.818;8.632;2023-01-01T08:42:24;2.83;;;1.25;;
23230;SDS011;11784;49.818;8.632;2023-01-01T08:44:49;2.22;;;0.98;;
23230;SDS011;11784;49.818;8.632;2023-01-01T08:47:19;1.55;;;0.98;;
23230;SDS011;11784;49.818;8.632;2023-01-01T08:49:47;2.30;;;0.80;;
23230;SDS011;11784;49.818;8.632;2023-01-01T08:52:13;0.47;;;0.40;;
23230;SDS011;11784;49.818;8.632;2023-01-01T08:54:39;1.25;;;0.68;;
23230;SDS011;11784;49.818;8.632;2023-01-01T08:57:05;1.83;;;0.93;;
23230;SDS011;11784;49.818;8.632;2023-01-01T08:59:30;2.95;;;0.95;;
23230;SDS011;11784;49.818;8.632;2023-01-01T09:01:56;2.10;;;0.75;;
23230;SDS011;11784;49.818;8.632;2023-01-01T09:04:23;1.25;;;0.70;;
23230;SDS011;11784;49.818;8.632;2023-01-01T09:06:49;4.72;;;1.13;;
23230;SDS011;11784;49.818;8.632;2023-01-01T09:09:14;1.42;;;0.80;;
23230;SDS011;11784;49.818;8.632;2023-01-01T09:11:48;1.25;;;0.90;;
23230;SDS011;11784;49.818;8.632;2023-01-01T09:14:18;2.80;;;1.00;;
23230;SDS011;11784;49.818;8.632;2023-01-01T09:16:45;2.28;;;0.77;;
23230;SDS011;11784;49.818;8.632;2023-01-01T09:19:10;1.98;;;0.63;;
23230;SDS011;11784;49.818;8.632;2023-01-01T09:21:36;1.23;;;0.52;;
23230;SDS011;11784;49.818;8.632;2023-01-01T09:24:02;8.05;;;1.00;;
23230;SDS011;11784;49.818;8.632;2023-01-01T09:26:28;1.35;;;0.60;;
23230;SDS011;11784;49.818;8.632;2023-01-01T09:28:53;2.15;;;0.93;;
23230;SDS011;11784;49.818;8.632;2023-01-01T09:31:19;1.52;;;1.02;;
23230;SDS011;11784;49.818;8.632;2023-01-01T09:33:44;1.35;;;0.90;;
23230;SDS011;11784;49.818;8.632;2023-01-01T09:38:48;2.45;;;0.73;;
23230;SDS011;11784;49.818;8.632;2023-01-01T09:44:15;2.10;;;0.77;;
23230;SDS011;11784;49.818;8.632;2023-01-01T09:46:54;3.22;;;1.02;;
23230;SDS011;11784;49.818;8.632;2023-01-01T09:49:28;4.10;;;0.98;;
23230;SDS011;11784;49.818;8.632;2023-01-01T09:51:58;3.78;;;0.70;;
23230;SDS011;11784;49.818;8.632;2023-01-01T09:54:29;2.72;;;0.82;;
23230;SDS011;11784;49.818;8.632;2023-01-01T09:56:58;1.10;;;0.40;;
23230;SDS011;11784;49.818;8.632;2023-01-01T09:59:25;1.48;;;0.77;;
23230;SDS011;11784;49.818;8.632;2023-01-01T10:01:53;3.97;;;0.90;;
23230;SDS011;11784;49.818;8.632;2023-01-01T10:07:22;2.78;;;0.70;;
23230;SDS011;11784;49.818;8.632;2023-01-01T10:12:41;0.68;;;0.38;;
23230;SDS011;11784;49.818;8.632;2023-01-01T10:15:22;4.60;;;1.08;;
23230;SDS011;11784;49.818;8.632;2023-01-01T10:17:54;2.50;;;0.88;;
23230;SDS011;11784;49.818;8.632;2023-01-01T10:20:41;1.90;;;0.80;;
23230;SDS011;11784;49.818;8.632;2023-01-01T10:23:16;1.60;;;0.82;;
23230;SDS011;11784;49.818;8.632;2023-01-01T10:25:46;2.85;;;0.50;;
23230;SDS011;11784;49.818;8.632;2023-01-01T10:28:22;1.55;;;0.70;;
23230;SDS011;11784;49.818;8.632;2023-01-01T10:30:50;2.13;;;1.10;;
23230;SDS011;11784;49.818;8.632;2023-01-01T10:33:19;2.80;;;0.93;;
23230;SDS011;11784;49.818;8.632;2023-01-01T10:35:45;2.92;;;1.15;;
23230;SDS011;11784;49.818;8.632;2023-01-01T10:38:31;4.22;;;0.63;;
23230;SDS011;11784;49.818;8.632;2023-01-01T10:41:05;2.45;;;0.57;;
23230;SDS011;11784;49.818;8.632;2023-01-01T10:43:33;1.25;;;0.80;;
23230;SDS011;11784;49.818;8.632;2023-01-01T10:45:59;1.95;;;0.65;;
23230;SDS011;11784;49.818;8.632;2023-01-01T10:48:29;2.10;;;1.08;;
23230;SDS011;11784;49.818;8.632;2023-01-01T10:51:00;2.28;;;1.00;;
23230;SDS011;11784;49.818;8.632;2023-01-01T10:53:35;2.05;;;0.82;;
23230;SDS011;11784;49.818;8.632;2023-01-01T11:01:21;1.75;;;0.90;;
23230;SDS011;11784;49.818;8.632;2023-01-01T11:04:00;0.93;;;0.63;;
23230;SDS011;11784;49.818;8.632;2023-01-01T11:06:30;1.77;;;0.57;;
23230;SDS011;11784;49.818;8.632;2023-01-01T11:09:05;2.35;;;0.90;;
23230;SDS011;11784;49.818;8.632;2023-01-01T11:11:44;1.58;;;0.63;;
23230;SDS011;11784;49.818;8.632;2023-01-01T11:14:17;2.15;;;0.57;;
23230;SDS011;11784;49.818;8.632;2023-01-01T11:16:49;0.60;;;0.50;;
23230;SDS011;11784;49.818;8.632;2023-01-01T11:19:29;2.95;;;0.98;;
23230;SDS011;11784;49.818;8.632;2023-01-01T11:22:00;1.80;;;0.68;;
23230;SDS011;11784;49.818;8.632;2023-01-01T11:24:27;0.70;;;0.47;;
23230;SDS011;11784;49.818;8.632;2023-01-01T11:29:46;1.38;;;0.70;;
23230;SDS011;11784;49.818;8.632;2023-01-01T11:32:19;2.85;;;1.13;;
23230;SDS011;11784;49.818;8.632;2023-01-01T11:34:48;0.75;;;0.60;;
23230;SDS011;11784;49.818;8.632;2023-01-01T11:37:33;1.52;;;0.65;;
23230;SDS011;11784;49.818;8.632;2023-01-01T11:40:14;2.95;;;1.02;;
23230;SDS011;11784;49.818;8.632;2023-01-01T11:42:46;1.45;;;0.95;;
23230;SDS011;11784;49.818;8.632;2023-01-01T11:45:22;1.48;;;0.63;;
23230;SDS011;11784;49.818;8.632;2023-01-01T11:47:59;1.33;;;0.70;;
23230;SDS011;11784;49.818;8.632;2023-01-01T11:50:34;0.77;;;0.50;;
23230;SDS011;11784;49.818;8.632;2023-01-01T11:56:01;1.20;;;0.95;;
23230;SDS011;11784;49.818;8.632;2023-01-01T12:03:54;1.73;;;0.70;;
23230;SDS011;11784;49.818;8.632;2023-01-01T12:06:46;1.55;;;0.70;;
23230;SDS011;11784;49.818;8.632;2023-01-01T12:09:45;4.00;;;0.80;;
23230;SDS011;11784;49.818;8.632;2023-01-01T12:15:30;2.30;;;0.80;;
23230;SDS011;11784;49.818;8.632;2023-01-01T12:18:21;2.03;;;0.60;;
23230;SDS011;11784;49.818;8.632;2023-01-01T12:23:32;1.80;;;1.10;;
23230;SDS011;11784;49.818;8.632;2023-01-01T12:26:08;0.60;;;0.40;;
23230;SDS011;11784;49.818;8.632;2023-01-01T12:28:50;2.05;;;1.15;;
23230;SDS011;11784;49.818;8.632;2023-01-01T12:34:26;1.65;;;0.57;;
23230;SDS011;11784;49.818;8.632;2023-01-01T12:43:01;1.00;;;0.63;;
23230;SDS011;11784;49.818;8.632;2023-01-01T12:51:30;5.13;;;0.70;;
23230;SDS011;11784;49.818;8.632;2023-01-01T12:56:55;1.98;;;0.93;;
23230;SDS011;11784;49.818;8.632;2023-01-01T12:59:33;1.80;;;1.05;;
23230;SDS011;11784;49.818;8.632;2023-01-01T13:02:08;1.05;;;0.80;;
23230;SDS011;11784;49.818;8.632;2023-01-01T13:04:38;2.33;;;0.88;;
23230;SDS011;11784;49.818;8.632;2023-01-01T13:07:07;1.77;;;0.80;;
23230;SDS011;11784;49.818;8.632;2023-01-01T13:09:36;6.32;;;0.85;;
23230;SDS011;11784;49.818;8.632;2023-01-01T13:14:36;4.70;;;1.08;;
23230;SDS011;11784;49.818;8.632;2023-01-01T13:17:19;2.90;;;0.70;;
23230;SDS011;11784;49.818;8.632;2023-01-01T13:19:48;1.15;;;0.88;;
23230;SDS011;11784;49.818;8.632;2023-01-01T13:25:04;13.52;;;1.33;;
23230;SDS011;11784;49.818;8.632;2023-01-01T13:51:51;4.50;;;0.65;;
23230;SDS011;11784;49.818;8.632;2023-01-01T13:57:16;1.83;;;0.68;;
23230;SDS011;11784;49.818;8.632;2023-01-01T14:00:23;3.35;;;0.95;;
23230;SDS011;11784;49.818;8.632;2023-01-01T14:02:57;2.42;;;1.08;;
23230;SDS011;11784;49.818;8.632;2023-01-01T14:08:01;1.05;;;0.70;;
23230;SDS011;11784;49.818;8.632;2023-01-01T14:10:31;3.42;;;1.30;;
23230;SDS011;11784;49.818;8.632;2023-01-01T14:15:35;2.58;;;1.15;;
23230;SDS011;11784;49.818;8.632;2023-01-01T14:18:12;3.67;;;0.95;;
23230;SDS011;11784;49.818;8.632;2023-01-01T14:20:41;5.45;;;1.30;;
23230;SDS011;11784;49.818;8.632;2023-01-01T14:23:09;0.77;;;0.65;;
23230;SDS011;11784;49.818;8.632;2023-01-01T14:25:39;2.05;;;0.47;;
23230;SDS011;11784;49.818;8.632;2023-01-01T14:28:11;2.75;;;0.57;;
23230;SDS011;11784;49.818;8.632;2023-01-01T14:30:45;0.85;;;0.73;;
23230;SDS011;11784;49.818;8.632;2023-01-01T14:33:19;2.67;;;0.80;;
23230;SDS011;11784;49.818;8.632;2023-01-01T14:35:51;1.05;;;0.60;;
23230;SDS011;11784;49.818;8.632;2023-01-01T14:38:26;2.08;;;0.47;;
23230;SDS011;11784;49.818;8.632;2023-01-01T14:43:43;2.38;;;0.80;;
23230;SDS011;11784;49.818;8.632;2023-01-01T14:46:19;5.30;;;1.58;;
23230;SDS011;11784;49.818;8.632;2023-01-01T14:48:52;3.15;;;0.95;;
23230;SDS011;11784;49.818;8.632;2023-01-01T14:51:21;1.95;;;0.98;;
23230;SDS011;11784;49.818;8.632;2023-01-01T14:53:49;2.60;;;0.80;;
23230;SDS011;11784;49.818;8.632;2023-01-01T14:56:24;1.05;;;0.70;;
23230;SDS011;11784;49.818;8.632;2023-01-01T14:58:52;2.70;;;1.05;;
23230;SDS011;11784;49.818;8.632;2023-01-01T15:01:28;3.45;;;0.70;;
23230;SDS011;11784;49.818;8.632;2023-01-01T15:03:58;3.45;;;1.15;;
23230;SDS011;11784;49.818;8.632;2023-01-01T15:06:29;2.92;;;0.98;;
23230;SDS011;11784;49.818;8.632;2023-01-01T15:08:56;1.42;;;0.82;;
23230;SDS011;11784;49.818;8.632;2023-01-01T15:11:21;3.60;;;1.13;;
23230;SDS011;11784;49.818;8.632;2023-01-01T15:13:55;2.22;;;0.93;;
23230;SDS011;11784;49.818;8.632;2023-01-01T15:16:23;1.83;;;0.90;;
23230;SDS011;11784;49.818;8.632;2023-01-01T15:18:49;1.30;;;0.70;;
23230;SDS011;11784;49.818;8.632;2023-01-01T15:21:30;2.42;;;1.10;;
23230;SDS011;11784;49.818;8.632;2023-01-01T15:24:13;3.47;;;0.63;;
23230;SDS011;11784;49.818;8.632;2023-01-01T15:26:51;3.10;;;1.45;;
23230;SDS011;11784;49.818;8.632;2023-01-01T15:29:29;1.90;;;0.98;;
23230;SDS011;11784;49.818;8.632;2023-01-01T15:31:57;1.88;;;0.75;;
23230;SDS011;11784;49.818;8.632;2023-01-01T15:34:33;3.97;;;1.15;;
23230;SDS011;11784;49.818;8.632;2023-01-01T15:37:06;2.72;;;1.10;;
23230;SDS011;11784;49.818;8.632;2023-01-01T15:42:36;4.35;;;1.98;;
23230;SDS011;11784;49.818;8.632;2023-01-01T15:45:22;2.83;;;1.05;;
23230;SDS011;11784;49.818;8.632;2023-01-01T15:47:53;5.47;;;1.80;;
23230;SDS011;11784;49.818;8.632;2023-01-01T15:53:24;3.55;;;1.77;;
23230;SDS011;11784;49.818;8.632;2023-01-01T15:55:54;3.17;;;1.17;;
23230;SDS011;11784;49.818;8.632;2023-01-01T15:58:31;4.25;;;1.75;;
23230;SDS011;11784;49.818;8.632;2023-01-01T16:01:09;4.70;;;2.25;;
23230;SDS011;11784;49.818;8.632;2023-01-01T16:03:37;6.60;;;2.75;;
23230;SDS011;11784;49.818;8.632;2023-01-01T16:08:43;10.70;;;2.25;;
23230;SDS011;11784;49.818;8.632;2023-01-01T16:11:08;8.52;;;2.75;;
23230;SDS011;11784;49.818;8.632;2023-01-01T16:13:34;6.97;;;2.22;;
23230;SDS011;11784;49.818;8.632;2023-01-01T16:16:04;6.55;;;2.58;;
23230;SDS011;11784;49.818;8.632;2023-01-01T16:18:48;7.43;;;2.35;;
23230;SDS011;11784;49.818;8.632;2023-01-01T16:21:14;8.23;;;2.58;;
23230;SDS011;11784;49.818;8.632;2023-01-01T16:23:40;6.30;;;2.55;;
23230;SDS011;11784;49.818;8.632;2023-01-01T16:26:05;7.68;;;2.95;;
23230;SDS011;11784;49.818;8.632;2023-01-01T16:28:31;12.60;;;3.05;;
23230;SDS011;11784;49.818;8.632;2023-01-01T16:30:56;6.38;;;3.03;;
23230;SDS011;11784;49.818;8.632;2023-01-01T16:33:22;4.07;;;2.38;;
23230;SDS011;11784;49.818;8.632;2023-01-01T16:35:47;8.25;;;3.30;;
23230;SDS011;11784;49.818;8.632;2023-01-01T16:38:13;10.82;;;2.92;;
23230;SDS011;11784;49.818;8.632;2023-01-01T16:40:39;9.30;;;2.97;;
23230;SDS011;11784;49.818;8.632;2023-01-01T16:43:12;9.13;;;3.00;;
23230;SDS011;11784;49.818;8.632;2023-01-01T16:45:40;7.28;;;3.05;;
23230;SDS011;11784;49.818;8.632;2023-01-01T16:48:05;13.88;;;3.88;;
23230;SDS011;11784;49.818;8.632;2023-01-01T16:50:31;11.57;;;3.90;;
23230;SDS011;11784;49.818;8.632;2023-01-01T16:52:56;10.68;;;3.55;;
23230;SDS011;11784;49.818;8.632;2023-01-01T16:55:22;12.52;;;4.22;;
23230;SDS011;11784;49.818;8.632;2023-01-01T16:57:47;7.85;;;3.42;;
23230;SDS011;11784;49.818;8.632;2023-01-01T17:00:13;8.30;;;3.35;;
23230;SDS011;11784;49.818;8.632;2023-01-01T17:02:39;10.13;;;3.47;;
23230;SDS011;11784;49.818;8.632;2023-01-01T17:05:07;8.75;;;3.28;;
23230;SDS011;11784;49.818;8.632;2023-01-01T17:07:33;8.80;;;3.53;;
23230;SDS011;11784;49.818;8.632;2023-01-01T17:09:58;11.38;;;4.22;;
23230;SDS011;11784;49.818;8.632;2023-01-01T17:12:24;10.02;;;3.72;;